Time;durP1;ratioP1;P1;durP2;ratioP2;P2;SDS_P1;SDS_P2;PMS_P1;PMS_P2;Temp;Humidity;BMP_temperature;BMP_pressure;BME280_temperature;BME280_humidity;BME280_pressure;Samples;Min_cycle;Max_cycle;Signal;HPM_P1;HPM_P2
2021/04/21 00:02:21;;;;;;;11.93;8.23;;;9.60;57.40;;;;;;5113458;28;20019;-71
2021/04/21 00:04:49;;;;;;;17.73;10.88;;;9.60;57.40;;;;;;5124416;27;20015;-70
2021/04/21 00:07:19;;;;;;;15.25;10.63;;;9.60;57.50;;;;;;5113519;28;20072;-71
2021/04/21 00:09:51;;;;;;;22.65;11.50;;;9.50;57.70;;;;;;5112807;28;20030;-72
2021/04/21 00:12:18;;;;;;;15.18;10.77;;;9.50;57.80;;;;;;5117965;27;20472;-72
2021/04/21 00:14:47;;;;;;;15.93;10.98;;;9.50;57.80;;;;;;5134418;27;20027;-72
2021/04/21 00:17:13;;;;;;;16.88;10.82;;;9.50;58.00;;;;;;5134496;27;20027;-71
2021/04/21 00:19:41;;;;;;;16.60;12.18;;;9.50;58.00;;;;;;5134449;27;20015;-71
2021/04/21 00:22:10;;;;;;;13.98;9.95;;;9.40;58.20;;;;;;5134510;27;20022;-72
2021/04/21 00:24:39;;;;;;;15.98;10.00;;;9.40;58.10;;;;;;5132068;27;20019;-72
2021/04/21 00:27:07;;;;;;;13.88;8.77;;;9.40;58.00;;;;;;5113806;28;20024;-72
2021/04/21 00:29:39;;;;;;;10.40;7.95;;;9.40;57.90;;;;;;5113668;28;20028;-72
2021/04/21 00:32:05;;;;;;;13.00;8.98;;;9.40;57.90;;;;;;5112514;28;20035;-72
2021/04/21 00:34:33;;;;;;;12.40;9.27;;;9.30;57.80;;;;;;5128396;27;20061;-71
2021/04/21 00:37:00;;;;;;;14.35;10.40;;;9.30;57.90;;;;;;5134096;27;20024;-71
2021/04/21 00:39:27;;;;;;;12.90;9.57;;;9.30;58.10;;;;;;5134033;27;20020;-72
2021/04/21 00:42:28;;;;;;;14.85;10.20;;;9.30;58.10;;;;;;5133117;27;20084;-71
2021/04/21 00:45:12;;;;;;;10.90;8.13;;;9.20;58.20;;;;;;5130051;27;20358;-71
2021/04/21 00:47:50;;;;;;;12.20;7.80;;;9.20;58.00;;;;;;5113528;28;20457;-71
2021/04/21 00:50:41;;;;;;;11.23;7.72;;;9.10;57.90;;;;;;5113192;27;20030;-72
2021/04/21 00:53:12;;;;;;;13.35;9.45;;;9.10;57.90;;;;;;5113442;28;20567;-71
2021/04/21 00:56:09;;;;;;;11.60;8.48;;;9.10;58.00;;;;;;5123015;27;20085;-71
2021/04/21 00:58:41;;;;;;;12.77;9.45;;;9.10;58.10;;;;;;5132539;27;20030;-71
2021/04/21 01:01:10;;;;;;;12.88;8.88;;;9.10;58.10;;;;;;5133984;27;20022;-71
2021/04/21 01:03:36;;;;;;;13.65;9.90;;;9.10;58.20;;;;;;5133619;27;20164;-71
2021/04/21 01:06:28;;;;;;;14.45;9.20;;;9.00;58.20;;;;;;5133717;27;20020;-71
2021/04/21 01:08:57;;;;;;;11.40;8.75;;;9.00;58.40;;;;;;5133671;27;20470;-72
2021/04/21 01:11:36;;;;;;;12.70;8.82;;;9.00;58.20;;;;;;5133666;27;20088;-71
2021/04/21 01:14:16;;;;;;;13.90;9.35;;;9.00;58.30;;;;;;5133663;27;20511;-72
2021/04/21 01:16:44;;;;;;;12.65;8.65;;;9.00;58.40;;;;;;5133498;27;20050;-71
2021/04/21 01:19:38;;;;;;;15.07;10.52;;;9.00;58.30;;;;;;5133495;27;20039;-71
2021/04/21 01:22:25;;;;;;;15.45;9.32;;;8.90;58.60;;;;;;5133503;27;20003;-71
2021/04/21 01:25:21;;;;;;;13.70;9.25;;;8.90;58.70;;;;;;5132167;28;20023;-72
2021/04/21 01:27:49;;;;;;;13.55;10.07;;;8.90;58.70;;;;;;5132123;28;20033;-71
2021/04/21 01:30:25;;;;;;;12.57;8.55;;;8.90;58.60;;;;;;5133392;27;20023;-71
2021/04/21 01:32:59;;;;;;;14.00;9.63;;;8.90;58.70;;;;;;5133278;27;20042;-71
2021/04/21 01:35:28;;;;;;;10.85;8.13;;;8.90;58.70;;;;;;5112888;28;20043;-71
2021/04/21 01:37:59;;;;;;;12.25;9.15;;;8.90;58.60;;;;;;5112664;28;20020;-71
2021/04/21 01:40:35;;;;;;;17.63;9.35;;;8.80;58.60;;;;;;5112713;28;20020;-71
2021/04/21 01:43:13;;;;;;;13.70;8.80;;;8.80;58.60;;;;;;5112815;28;20041;-71
2021/04/21 01:45:40;;;;;;;12.15;8.63;;;8.80;58.80;;;;;;5112954;28;20098;-71
2021/04/21 01:48:16;;;;;;;12.80;8.93;;;8.80;58.70;;;;;;5112797;28;20024;-71
2021/04/21 01:51:19;;;;;;;13.55;8.85;;;8.80;58.80;;;;;;5112532;28;20051;-71
2021/04/21 01:53:52;;;;;;;14.10;10.27;;;8.70;58.90;;;;;;5116550;28;20023;-72
2021/04/21 01:56:29;;;;;;;14.63;9.63;;;8.80;58.80;;;;;;5116592;28;20036;-71
2021/04/21 01:59:04;;;;;;;12.38;8.70;;;8.70;59.00;;;;;;5116731;28;20526;-71
2021/04/21 02:01:29;;;;;;;12.90;9.45;;;8.70;59.00;;;;;;5116697;28;20068;-71
2021/04/21 02:04:02;;;;;;;13.98;9.30;;;8.70;59.00;;;;;;5125326;27;20031;-71
2021/04/21 02:06:34;;;;;;;14.77;10.18;;;8.70;59.70;;;;;;5135671;27;20034;-72
2021/04/21 02:09:08;;;;;;;15.60;10.20;;;8.70;59.30;;;;;;5136946;27;20012;-71
2021/04/21 02:11:37;;;;;;;17.58;11.52;;;8.70;59.40;;;;;;5136756;27;20080;-72
2021/04/21 02:14:20;;;;;;;20.45;11.43;;;8.80;59.40;;;;;;5136849;27;20019;-71
2021/04/21 02:16:55;;;;;;;14.50;10.88;;;8.70;59.50;;;;;;5135432;27;20027;-71
2021/04/21 02:19:50;;;;;;;19.17;11.40;;;8.80;59.40;;;;;;5135528;27;20054;-71
2021/04/21 02:22:48;;;;;;;13.30;9.75;;;8.80;59.50;;;;;;5136685;27;20027;-71
2021/04/21 02:25:41;;;;;;;16.58;9.65;;;8.80;59.40;;;;;;5129280;27;20031;-72
2021/04/21 02:28:43;;;;;;;14.05;9.63;;;8.80;59.40;;;;;;5136513;27;20469;-72
2021/04/21 02:31:31;;;;;;;15.80;10.80;;;8.80;59.50;;;;;;5136485;27;20027;-72
2021/04/21 02:34:16;;;;;;;18.42;12.45;;;8.80;59.60;;;;;;5136210;27;20392;-71
2021/04/21 02:37:01;;;;;;;21.58;13.15;;;8.80;60.00;;;;;;5134983;27;20020;-71
2021/04/21 02:39:45;;;;;;;15.70;10.55;;;8.80;60.00;;;;;;5115900;28;20473;-72
2021/04/21 02:42:16;;;;;;;19.02;12.25;;;8.80;60.20;;;;;;5118615;28;20019;-71
2021/04/21 02:45:00;;;;;;;14.50;10.52;;;8.90;60.30;;;;;;5116123;28;20027;-71
2021/04/21 02:47:46;;;;;;;16.08;10.90;;;9.00;60.40;;;;;;5115991;28;20026;-72
2021/04/21 02:50:36;;;;;;;28.02;15.40;;;9.00;60.30;;;;;;5115595;28;20481;-73
2021/04/21 02:53:28;;;;;;;39.95;20.98;;;9.10;60.30;;;;;;5115651;28;20443;-71
2021/04/21 02:56:23;;;;;;;36.47;19.45;;;9.20;60.50;;;;;;5131358;27;20024;-71
2021/04/21 02:59:13;;;;;;;32.55;16.27;;;9.20;60.30;;;;;;5114223;28;20068;-71
2021/04/21 03:02:01;;;;;;;22.42;13.63;;;9.30;60.30;;;;;;5115547;28;20026;-71
2021/04/21 03:04:50;;;;;;;25.08;13.95;;;9.30;60.50;;;;;;5127341;27;20110;-71
2021/04/21 03:07:30;;;;;;;24.10;14.25;;;9.40;60.50;;;;;;5135873;27;20019;-71
2021/04/21 03:10:18;;;;;;;37.50;18.75;;;9.50;60.50;;;;;;5135941;27;20023;-71
2021/04/21 03:13:06;;;;;;;31.08;16.63;;;9.50;60.40;;;;;;5135868;27;20096;-71
2021/04/21 03:15:33;;;;;;;32.60;16.95;;;9.60;60.40;;;;;;5135858;27;20015;-71
2021/04/21 03:18:00;;;;;;;28.42;16.33;;;9.70;60.30;;;;;;5135355;27;20055;-71
2021/04/21 03:20:29;;;;;;;30.75;16.52;;;9.80;60.20;;;;;;5134419;27;20023;-71
2021/04/21 03:22:59;;;;;;;30.63;16.48;;;9.80;60.10;;;;;;5134353;27;20376;-71
2021/04/21 03:25:37;;;;;;;28.40;17.25;;;9.90;60.10;;;;;;5135668;27;20076;-72
2021/04/21 03:28:10;;;;;;;27.88;15.80;;;10.00;60.10;;;;;;5135616;27;20023;-71
2021/04/21 03:30:36;;;;;;;30.88;18.08;;;10.00;59.90;;;;;;5135551;27;20027;-71
2021/04/21 03:33:20;;;;;;;35.95;19.05;;;10.10;59.90;;;;;;5133667;27;20019;-71
2021/04/21 03:35:50;;;;;;;25.50;15.52;;;10.10;59.80;;;;;;5128655;27;20477;-71
2021/04/21 03:38:17;;;;;;;22.08;14.50;;;10.20;59.80;;;;;;5114651;28;20024;-71
2021/04/21 03:40:44;;;;;;;28.63;16.83;;;10.20;59.70;;;;;;5114724;27;20023;-71
2021/04/21 03:43:10;;;;;;;23.08;14.88;;;10.20;59.60;;;;;;5114670;28;20016;-71
2021/04/21 03:45:38;;;;;;;20.73;14.52;;;10.30;59.60;;;;;;5130433;27;20376;-71
2021/04/21 03:48:06;;;;;;;19.98;13.63;;;10.30;59.50;;;;;;5114578;28;20481;-71
2021/04/21 03:50:34;;;;;;;24.75;14.98;;;10.30;59.50;;;;;;5130154;27;20142;-71
2021/04/21 03:53:02;;;;;;;18.10;13.38;;;10.30;59.50;;;;;;5113234;28;20075;-71
2021/04/21 03:55:29;;;;;;;20.48;14.18;;;10.40;59.40;;;;;;5114488;28;20473;-71
2021/04/21 03:57:59;;;;;;;19.02;12.27;;;10.40;59.30;;;;;;5114141;28;20154;-73
2021/04/21 04:00:27;;;;;;;18.70;12.25;;;10.40;59.30;;;;;;5114377;28;20016;-72
2021/04/21 04:02:57;;;;;;;16.60;12.32;;;10.40;59.20;;;;;;5112964;28;20135;-71
2021/04/21 04:05:42;;;;;;;17.27;12.48;;;10.50;59.20;;;;;;5134680;27;20503;-72
2021/04/21 04:08:09;;;;;;;;;;;10.50;59.10;;;;;;5135125;27;20027;-72
2021/04/21 04:10:36;;;;;;;16.77;13.00;;;10.50;58.80;;;;;;5134587;27;20408;-72
2021/04/21 04:13:09;;;;;;;20.85;13.40;;;10.50;58.90;;;;;;5134362;27;20031;-72
2021/04/21 04:15:37;;;;;;;20.70;13.53;;;10.50;58.90;;;;;;5133402;27;20448;-72
2021/04/21 04:18:05;;;;;;;18.05;12.85;;;10.60;59.00;;;;;;5132858;27;20329;-72
2021/04/21 04:20:33;;;;;;;19.13;13.30;;;10.60;59.00;;;;;;5134324;27;20022;-72
2021/04/21 04:23:05;;;;;;;19.20;13.68;;;10.60;59.00;;;;;;5132954;27;20061;-72
2021/04/21 04:25:33;;;;;;;24.02;12.30;;;10.70;59.00;;;;;;5134317;27;20019;-72
2021/04/21 04:28:01;;;;;;;15.45;11.10;;;10.70;58.90;;;;;;5134129;27;20015;-72
2021/04/21 04:30:27;;;;;;;17.45;12.13;;;10.70;58.80;;;;;;5134111;27;20019;-72
2021/04/21 04:32:57;;;;;;;18.13;12.32;;;10.70;58.80;;;;;;5134390;27;20414;-72
2021/04/21 04:35:23;;;;;;;20.85;13.95;;;10.80;58.80;;;;;;5119628;27;20481;-72
2021/04/21 04:37:50;;;;;;;25.45;14.15;;;10.80;58.70;;;;;;5113285;28;20037;-73
2021/04/21 04:40:18;;;;;;;23.35;14.45;;;10.70;58.70;;;;;;5113293;28;20415;-72
2021/04/21 04:42:44;;;;;;;23.20;14.27;;;10.80;58.70;;;;;;5113352;28;20024;-72
2021/04/21 04:45:11;;;;;;;21.73;14.95;;;10.80;59.40;;;;;;5113345;28;20026;-72
2021/04/21 04:47:54;;;;;;;24.38;15.32;;;10.80;58.80;;;;;;5113256;28;20111;-72
2021/04/21 04:50:22;;;;;;;22.65;14.95;;;10.80;58.90;;;;;;5111804;28;20323;-73
2021/04/21 04:52:50;;;;;;;26.83;16.40;;;10.90;59.00;;;;;;5129092;27;20123;-72
2021/04/21 04:55:19;;;;;;;24.08;15.75;;;10.90;58.90;;;;;;5113309;28;20031;-72
2021/04/21 04:57:47;;;;;;;26.70;17.10;;;10.90;58.90;;;;;;5113037;28;20024;-72
2021/04/21 05:00:19;;;;;;;24.85;15.85;;;11.00;59.00;;;;;;5113220;28;20019;-72
2021/04/21 05:03:01;;;;;;;29.05;16.67;;;11.00;59.00;;;;;;5128845;27;20023;-73
2021/04/21 05:05:28;;;;;;;25.08;16.05;;;11.10;59.00;;;;;;5128781;27;20521;-72
2021/04/21 05:08:07;;;;;;;26.52;17.33;;;11.10;59.00;;;;;;5112954;28;20028;-72
2021/04/21 05:10:47;;;;;;;29.10;17.33;;;11.20;59.00;;;;;;5111610;28;20489;-72
2021/04/21 05:13:20;;;;;;;26.70;15.93;;;11.20;58.90;;;;;;5112985;28;20036;-72
2021/04/21 05:15:51;;;;;;;28.75;17.25;;;11.30;58.90;;;;;;5112896;28;20069;-72
2021/04/21 05:18:26;;;;;;;27.27;16.80;;;11.30;58.80;;;;;;5112744;28;20063;-72
2021/04/21 05:21:29;;;;;;;30.45;17.45;;;11.40;58.80;;;;;;5112651;28;20023;-72
2021/04/21 05:24:27;;;;;;;27.00;17.50;;;11.40;58.80;;;;;;5112811;28;20026;-72
2021/04/21 05:27:25;;;;;;;31.90;19.10;;;11.50;58.70;;;;;;5113609;28;20073;-72
2021/04/21 05:30:15;;;;;;;32.38;18.88;;;11.60;58.70;;;;;;5116917;28;20028;-72
2021/04/21 05:32:59;;;;;;;27.38;17.95;;;11.70;58.60;;;;;;5119786;27;20023;-72
2021/04/21 05:36:09;;;;;;;30.90;20.17;;;11.70;58.60;;;;;;5136886;27;20027;-73
2021/04/21 05:39:12;;;;;;;45.58;23.95;;;11.80;58.50;;;;;;5113108;27;20078;-73
2021/04/21 05:42:15;;;;;;;34.08;22.05;;;11.90;58.40;;;;;;5135915;27;20246;-72
2021/04/21 05:45:13;;;;;;;40.88;24.30;;;12.00;58.10;;;;;;5137177;27;20098;-73
2021/04/21 05:48:07;;;;;;;41.38;25.10;;;12.00;58.00;;;;;;5137256;27;20428;-72
2021/04/21 05:51:11;;;;;;;42.75;24.98;;;12.10;57.90;;;;;;5136868;27;20047;-72
2021/04/21 05:54:05;;;;;;;41.40;24.45;;;12.20;57.80;;;;;;5135048;27;20035;-72
2021/04/21 05:57:04;;;;;;;48.60;28.15;;;12.20;57.70;;;;;;5136874;27;20011;-73
2021/04/21 05:59:48;;;;;;;43.50;25.90;;;12.30;57.50;;;;;;5136795;27;20030;-73
2021/04/21 06:02:16;;;;;;;40.05;25.58;;;12.30;57.50;;;;;;5136991;27;20098;-73
2021/04/21 06:04:41;;;;;;;43.90;27.77;;;12.40;57.50;;;;;;5136466;27;20068;-73
2021/04/21 06:07:10;;;;;;;43.88;25.90;;;12.50;57.40;;;;;;5138264;27;20053;-72
2021/04/21 06:09:37;;;;;;;41.30;23.40;;;12.50;57.10;;;;;;5136760;27;20023;-73
2021/04/21 06:12:09;;;;;;;37.65;24.02;;;12.60;57.10;;;;;;5136581;27;20473;-73
2021/04/21 06:14:36;;;;;;;43.75;25.67;;;12.70;56.90;;;;;;5136738;27;20083;-72
2021/04/21 06:17:02;;;;;;;34.42;22.15;;;12.80;56.80;;;;;;5136512;27;20030;-73
2021/04/21 06:19:28;;;;;;;34.88;19.63;;;12.80;56.50;;;;;;5136687;27;20492;-73
2021/04/21 06:21:55;;;;;;;33.40;18.70;;;12.90;56.50;;;;;;5137186;27;20015;-73
2021/04/21 06:24:22;;;;;;;38.08;19.27;;;12.90;56.40;;;;;;5136302;27;20023;-73
2021/04/21 06:26:48;;;;;;;33.50;19.88;;;13.00;56.20;;;;;;5136605;27;20152;-72
2021/04/21 06:29:14;;;;;;;35.70;19.58;;;13.00;56.00;;;;;;5135457;27;20380;-72
2021/04/21 06:31:43;;;;;;;33.85;19.00;;;13.10;55.80;;;;;;5144127;27;20078;-73
2021/04/21 06:34:11;;;;;;;32.88;19.20;;;13.10;55.90;;;;;;5136137;27;20031;-73
2021/04/21 06:36:58;;;;;;;43.67;21.63;;;13.20;55.90;;;;;;5135959;27;20435;-72
2021/04/21 06:39:26;;;;;;;44.35;24.13;;;13.30;55.70;;;;;;5142269;27;20011;-73
2021/04/21 06:42:02;;;;;;;55.15;25.25;;;13.40;55.50;;;;;;5135101;27;20460;-72
2021/04/21 06:44:43;;;;;;;39.35;22.27;;;13.50;55.40;;;;;;5135166;27;20034;-73
2021/04/21 06:47:19;;;;;;;47.13;26.88;;;13.60;55.30;;;;;;5143439;27;20027;-73
2021/04/21 06:49:56;;;;;;;50.92;26.05;;;13.70;55.10;;;;;;5131166;27;20348;-72
2021/04/21 06:52:22;;;;;;;43.78;23.38;;;13.80;55.10;;;;;;5123147;27;20058;-73
2021/04/21 06:55:08;;;;;;;49.13;27.88;;;13.90;55.00;;;;;;5129250;27;20142;-73
2021/04/21 06:57:35;;;;;;;58.00;29.55;;;14.00;54.50;;;;;;5114151;28;20040;-72
2021/04/21 07:00:03;;;;;;;50.63;27.83;;;14.10;54.30;;;;;;5114826;28;20043;-72
2021/04/21 07:02:59;;;;;;;46.50;26.50;;;14.10;53.90;;;;;;5125538;27;20076;-72
2021/04/21 07:05:40;;;;;;;45.65;24.63;;;14.30;54.00;;;;;;5132787;27;20059;-72
2021/04/21 07:08:10;;;;;;;50.92;28.30;;;14.30;53.80;;;;;;5136198;27;20023;-72
2021/04/21 07:10:41;;;;;;;55.10;29.77;;;14.40;54.10;;;;;;5135831;27;20027;-71
2021/04/21 07:13:30;;;;;;;56.45;30.13;;;14.50;53.30;;;;;;5136795;27;20023;-72
2021/04/21 07:16:05;;;;;;;53.65;28.38;;;14.50;53.40;;;;;;5133460;27;20037;-71
2021/04/21 07:18:37;;;;;;;59.33;31.25;;;14.60;53.50;;;;;;5131347;27;20033;-72
2021/04/21 07:21:05;;;;;;;59.53;31.45;;;14.80;53.50;;;;;;5133584;27;20426;-72
2021/04/21 07:23:32;;;;;;;64.50;33.95;;;14.90;53.10;;;;;;5130349;27;20027;-72
2021/04/21 07:25:58;;;;;;;53.25;30.35;;;15.00;52.80;;;;;;5136385;27;20023;-72
2021/04/21 07:28:24;;;;;;;55.03;29.02;;;15.10;52.50;;;;;;5149712;27;20446;-72
2021/04/21 07:30:53;;;;;;;55.78;30.10;;;15.20;52.60;;;;;;5137178;27;20019;-72
2021/04/21 07:33:39;;;;;;;50.60;28.30;;;15.30;52.20;;;;;;5131272;27;20026;-73
2021/04/21 07:36:11;;;;;;;61.10;29.15;;;15.50;52.20;;;;;;5128030;27;20030;-72
2021/04/21 07:38:42;;;;;;;39.70;23.80;;;15.60;51.70;;;;;;5125531;27;20031;-73
2021/04/21 07:41:08;;;;;;;34.38;20.70;;;15.70;51.30;;;;;;5133909;27;20126;-72
2021/04/21 07:43:43;;;;;;;35.90;22.05;;;15.80;51.20;;;;;;5134951;27;20504;-73
2021/04/21 07:46:15;;;;;;;40.60;22.83;;;15.90;51.00;;;;;;5134905;27;20080;-73
2021/04/21 07:48:42;;;;;;;33.10;21.52;;;15.90;50.40;;;;;;5155572;27;20034;-73
2021/04/21 07:51:21;;;;;;;35.70;21.60;;;15.80;50.20;;;;;;5154165;27;20399;-72
2021/04/21 07:54:03;;;;;;;38.28;22.35;;;15.70;50.10;;;;;;5134797;27;20384;-72
2021/04/21 07:56:58;;;;;;;29.42;19.95;;;15.60;50.20;;;;;;5134636;27;20039;-73
2021/04/21 07:59:26;;;;;;;34.92;22.55;;;15.50;50.50;;;;;;5127614;27;20084;-77
2021/04/21 08:01:59;;;;;;;30.35;21.25;;;15.40;50.60;;;;;;5132280;27;20036;-78
2021/04/21 08:04:26;;;;;;;32.10;20.23;;;15.30;50.90;;;;;;5123754;27;20076;-77
2021/04/21 08:06:56;;;;;;;30.88;20.15;;;15.20;51.20;;;;;;5134787;27;20030;-77
2021/04/21 08:09:24;;;;;;;30.10;20.63;;;15.10;51.40;;;;;;5123753;27;20031;-78
2021/04/21 08:12:13;;;;;;;38.72;21.88;;;14.90;51.50;;;;;;5114874;27;20099;-78
2021/04/21 08:14:47;;;;;;;37.60;21.80;;;14.80;51.70;;;;;;5133240;27;20023;-77
2021/04/21 08:17:15;;;;;;;;;;;14.70;52.00;;;;;;5134725;27;20463;-78
2021/04/21 08:19:43;;;;;;;33.92;21.02;;;14.70;52.30;;;;;;5116813;27;20365;-78
2021/04/21 08:22:10;;;;;;;33.33;19.92;;;14.70;52.30;;;;;;5115686;27;20019;-77
2021/04/21 08:24:44;;;;;;;33.85;21.92;;;14.60;52.60;;;;;;5127579;27;20536;-79
2021/04/21 08:27:13;;;;;;;33.85;20.98;;;14.50;52.80;;;;;;5134308;27;20114;-77
2021/04/21 08:29:40;;;;;;;35.83;21.80;;;14.50;53.20;;;;;;5134095;27;20068;-78
2021/04/21 08:32:07;;;;;;;37.80;21.92;;;14.50;53.40;;;;;;5121542;27;20027;-77
2021/04/21 08:34:33;;;;;;;37.50;20.58;;;14.50;53.50;;;;;;5123863;27;20093;-79
2021/04/21 08:36:59;;;;;;;33.40;20.42;;;14.50;53.60;;;;;;5127295;27;20023;-68
2021/04/21 08:39:26;;;;;;;41.95;20.50;;;14.50;53.70;;;;;;5127361;27;20504;-70
2021/04/21 08:41:57;;;;;;;39.63;21.67;;;14.60;53.90;;;;;;5131575;27;20035;-69
2021/04/21 08:44:25;;;;;;;42.40;23.75;;;14.60;54.00;;;;;;5132872;27;20176;-75
2021/04/21 08:46:52;;;;;;;39.80;21.70;;;14.60;54.50;;;;;;5133717;27;20047;-68
2021/04/21 08:49:20;;;;;;;38.20;20.83;;;14.70;54.00;;;;;;5117135;27;20023;-71
2021/04/21 08:51:52;;;;;;;40.83;22.23;;;14.80;54.00;;;;;;5133219;27;20505;-68
2021/04/21 08:54:22;;;;;;;41.63;22.83;;;14.80;53.90;;;;;;5133486;27;20421;-71
2021/04/21 08:56:49;;;;;;;39.30;23.10;;;14.80;53.60;;;;;;5128584;27;20022;-72
2021/04/21 08:59:15;;;;;;;30.90;19.65;;;14.90;53.40;;;;;;5133296;27;20072;-70
2021/04/21 09:01:45;;;;;;;31.00;19.95;;;14.90;53.00;;;;;;5127488;27;20015;-67
2021/04/21 09:04:13;;;;;;;27.85;17.63;;;15.00;53.00;;;;;;5129867;27;20023;-70
2021/04/21 09:06:39;;;;;;;28.20;18.25;;;15.00;52.40;;;;;;5133410;27;20034;-69
2021/04/21 09:09:06;;;;;;;23.13;15.63;;;15.10;52.40;;;;;;5133427;27;20019;-65
2021/04/21 09:11:33;;;;;;;24.60;15.45;;;15.20;51.90;;;;;;5132448;27;20422;-66
2021/04/21 09:13:59;;;;;;;29.25;17.50;;;15.30;51.70;;;;;;5119447;27;20019;-68
2021/04/21 09:16:24;;;;;;;30.63;16.58;;;15.40;51.80;;;;;;5116142;27;20107;-69
2021/04/21 09:18:51;;;;;;;23.25;14.43;;;15.40;51.40;;;;;;5114919;28;20106;-65
2021/04/21 09:21:26;;;;;;;22.38;14.25;;;15.50;51.20;;;;;;5132062;27;20019;-67
2021/04/21 09:23:52;;;;;;;21.20;13.23;;;15.60;51.10;;;;;;5113355;27;20023;-71
2021/04/21 09:26:24;;;;;;;22.67;14.73;;;15.70;50.50;;;;;;5126013;28;20029;-65
2021/04/21 09:28:53;;;;;;;20.13;13.27;;;15.70;50.50;;;;;;5117566;27;20019;-71
2021/04/21 09:31:22;;;;;;;24.17;14.65;;;15.80;50.50;;;;;;5130829;27;20023;-68
2021/04/21 09:33:48;;;;;;;22.15;13.77;;;15.90;50.30;;;;;;5129728;28;20047;-69
2021/04/21 09:36:34;;;;;;;23.67;15.27;;;16.00;50.30;;;;;;5131697;27;20114;-72
2021/04/21 09:39:15;;;;;;;21.42;13.25;;;16.00;49.90;;;;;;5124760;27;20477;-78
2021/04/21 09:41:41;;;;;;;24.35;13.75;;;16.00;49.70;;;;;;5130681;28;20050;-68
2021/04/21 09:44:16;;;;;;;25.33;12.55;;;16.10;49.00;;;;;;5128564;27;20024;-68
2021/04/21 09:46:43;;;;;;;23.85;13.00;;;16.10;49.00;;;;;;5127774;28;20043;-67
2021/04/21 09:49:34;;;;;;;17.63;13.15;;;16.20;48.90;;;;;;5132960;27;20038;-68
2021/04/21 09:52:21;;;;;;;20.00;13.07;;;16.30;48.70;;;;;;5126500;27;20050;-70
2021/04/21 09:54:48;;;;;;;20.40;13.13;;;16.30;48.50;;;;;;5124657;28;20030;-65
2021/04/21 09:57:18;;;;;;;20.23;13.98;;;16.40;48.50;;;;;;5131108;28;20028;-69
2021/04/21 10:00:00;;;;;;;18.42;13.23;;;16.50;48.20;;;;;;5132960;27;20023;-68
2021/04/21 10:02:38;;;;;;;20.35;13.93;;;16.50;48.10;;;;;;5131831;28;20103;-76
2021/04/21 10:05:27;;;;;;;18.90;12.02;;;16.60;48.00;;;;;;5130321;27;20139;-68
2021/04/21 10:08:16;;;;;;;20.50;13.77;;;16.70;48.10;;;;;;5123109;28;20060;-67
2021/04/21 10:11:05;;;;;;;18.55;13.55;;;16.70;47.60;;;;;;5132463;27;20503;-76
2021/04/21 10:13:47;;;;;;;17.33;12.32;;;16.80;47.20;;;;;;5132839;27;20030;-68
2021/04/21 10:16:15;;;;;;;20.38;13.23;;;16.80;47.60;;;;;;5117740;27;20112;-71
2021/04/21 10:18:42;;;;;;;17.90;12.90;;;16.90;47.00;;;;;;5127958;27;20481;-67
2021/04/21 10:21:10;;;;;;;18.23;12.88;;;16.90;47.20;;;;;;5136553;27;20087;-66
2021/04/21 10:23:36;;;;;;;17.85;12.05;;;17.00;46.80;;;;;;5135124;27;20544;-70
2021/04/21 10:26:08;;;;;;;15.02;11.45;;;17.10;46.90;;;;;;5132037;27;20481;-64
2021/04/21 10:28:34;;;;;;;19.20;11.70;;;17.10;46.40;;;;;;5133733;27;20476;-74
2021/04/21 10:31:06;;;;;;;15.07;11.50;;;17.10;46.20;;;;;;5124555;27;20031;-63
2021/04/21 10:33:32;;;;;;;33.97;21.65;;;17.20;46.30;;;;;;5125010;27;20023;-62
2021/04/21 10:35:59;;;;;;;23.73;16.67;;;17.30;46.30;;;;;;5120679;27;20026;-61
2021/04/21 10:38:27;;;;;;;22.42;15.82;;;17.30;46.20;;;;;;5122838;27;20038;-61
2021/04/21 10:41:22;;;;;;;32.65;22.85;;;17.40;45.70;;;;;;5135864;27;20058;-62
2021/04/21 10:43:48;;;;;;;;;;;17.50;45.70;;;;;;5136203;27;20007;-61
2021/04/21 10:46:14;;;;;;;14.95;11.15;;;17.60;46.70;;;;;;5128383;27;19914;-79
2021/04/21 10:48:45;;;;;;;15.05;10.13;;;17.70;45.10;;;;;;5116331;28;20422;-82
2021/04/21 10:51:36;;;;;;;14.18;10.43;;;17.90;44.90;;;;;;5115895;28;20075;-82
2021/04/21 10:54:09;;;;;;;18.23;12.98;;;17.90;45.00;;;;;;5114886;28;20111;-80
2021/04/21 10:56:37;;;;;;;14.88;10.82;;;18.00;44.10;;;;;;5117944;27;20019;-66
2021/04/21 10:59:04;;;;;;;16.17;11.93;;;18.00;44.10;;;;;;5125097;27;20023;-70
2021/04/21 11:01:35;;;;;;;12.07;9.52;;;18.10;43.90;;;;;;5133662;27;20036;-68
2021/04/21 11:04:02;;;;;;;18.25;11.45;;;18.20;44.30;;;;;;5133188;27;20015;-68
2021/04/21 11:06:40;;;;;;;15.77;11.73;;;18.30;44.00;;;;;;5135596;27;20026;-68
2021/04/21 11:09:07;;;;;;;15.65;12.10;;;18.30;43.60;;;;;;5135603;27;20031;-69
2021/04/21 11:11:35;;;;;;;17.90;11.88;;;18.40;43.50;;;;;;5135689;27;20023;-68
2021/04/21 11:14:01;;;;;;;17.63;10.85;;;18.50;42.90;;;;;;5135461;27;20012;-69
2021/04/21 11:16:38;;;;;;;14.50;10.45;;;18.50;42.60;;;;;;5135306;27;20023;-69
2021/04/21 11:19:19;;;;;;;19.13;10.73;;;18.50;42.70;;;;;;5135531;27;20023;-67
2021/04/21 11:21:47;;;;;;;13.45;9.65;;;18.60;42.00;;;;;;5135425;27;20026;-68
2021/04/21 11:24:13;;;;;;;14.77;10.93;;;18.60;42.30;;;;;;5130462;27;20429;-68
2021/04/21 11:26:44;;;;;;;13.68;9.40;;;18.70;41.80;;;;;;5114658;28;20031;-68
2021/04/21 11:29:21;;;;;;;15.90;11.57;;;18.80;41.90;;;;;;5116012;27;20145;-70
2021/04/21 11:31:50;;;;;;;16.88;11.32;;;18.80;41.20;;;;;;5115433;28;20051;-68
2021/04/21 11:34:24;;;;;;;16.23;10.60;;;18.90;41.30;;;;;;5115037;28;20016;-69
2021/04/21 11:36:54;;;;;;;;;;;18.90;41.50;;;;;;5115011;28;20020;-69
2021/04/21 11:39:38;;;;;;;20.38;10.88;;;19.00;42.70;;;;;;5114680;28;20301;-69
2021/04/21 11:42:28;;;;;;;17.17;12.00;;;19.00;40.70;;;;;;5114391;28;20092;-68
2021/04/21 11:45:30;;;;;;;15.70;12.02;;;19.00;40.70;;;;;;5114512;28;20080;-68
2021/04/21 11:48:06;;;;;;;16.90;10.35;;;19.00;40.10;;;;;;5113145;27;20024;-69
2021/04/21 11:50:33;;;;;;;16.05;11.35;;;19.00;39.80;;;;;;5112819;28;20111;-68
2021/04/21 11:53:06;;;;;;;17.08;11.98;;;19.10;40.40;;;;;;5114433;28;20023;-69
2021/04/21 11:55:41;;;;;;;20.35;11.18;;;19.20;40.30;;;;;;5114356;28;20106;-69
2021/04/21 11:58:11;;;;;;;15.10;10.57;;;19.20;39.60;;;;;;5114182;28;20028;-68
2021/04/21 12:01:05;;;;;;;13.32;8.85;;;19.30;39.70;;;;;;5125959;27;20430;-69
2021/04/21 12:03:33;;;;;;;11.05;8.43;;;19.40;38.20;;;;;;5132619;27;20046;-69
2021/04/21 12:06:10;;;;;;;14.88;10.10;;;19.40;39.20;;;;;;5133334;27;20078;-69
2021/04/21 12:08:39;;;;;;;15.95;11.27;;;19.50;39.00;;;;;;5134684;27;20019;-69
2021/04/21 12:11:06;;;;;;;16.10;11.43;;;19.60;39.30;;;;;;5134454;27;20015;-69
2021/04/21 12:13:35;;;;;;;14.02;9.55;;;19.70;39.70;;;;;;5133276;27;20072;-69
2021/04/21 12:16:18;;;;;;;13.82;10.52;;;19.80;40.20;;;;;;5134438;27;20012;-69
2021/04/21 12:18:52;;;;;;;13.35;10.13;;;19.90;38.60;;;;;;5134367;27;20019;-69
2021/04/21 12:21:18;;;;;;;14.80;10.13;;;20.10;38.90;;;;;;5134383;27;20019;-69
2021/04/21 12:23:52;;;;;;;15.77;11.90;;;20.20;39.20;;;;;;5123468;27;20042;-69
2021/04/21 12:26:25;;;;;;;;;;;20.40;39.70;;;;;;5114407;28;20420;-69
2021/04/21 12:28:57;;;;;;;12.48;9.43;;;20.60;40.40;;;;;;5113733;28;19908;-70
2021/04/21 12:31:24;;;;;;;13.32;8.98;;;20.70;37.30;;;;;;5132745;27;20027;-69
2021/04/21 12:34:00;;;;;;;12.70;10.20;;;20.80;37.50;;;;;;5134070;27;20059;-69
2021/04/21 12:36:30;;;;;;;13.05;8.60;;;20.80;36.30;;;;;;5133899;27;20027;-68
2021/04/21 12:39:11;;;;;;;17.52;10.25;;;20.90;36.90;;;;;;5134329;27;20024;-68
2021/04/21 12:41:44;;;;;;;15.57;9.68;;;20.90;36.90;;;;;;5133946;27;20194;-68
2021/04/21 12:44:20;;;;;;;10.93;8.60;;;21.00;37.30;;;;;;5133849;27;20020;-68
2021/04/21 12:46:48;;;;;;;10.25;8.02;;;21.00;36.40;;;;;;5133925;27;20023;-69
2021/04/21 12:49:15;;;;;;;14.60;8.55;;;21.10;36.50;;;;;;5132492;27;20388;-69
2021/04/21 12:51:47;;;;;;;14.07;8.25;;;21.20;36.30;;;;;;5132315;27;20043;-68
2021/04/21 12:54:42;;;;;;;14.15;8.35;;;21.20;34.90;;;;;;5133893;27;20015;-69
2021/04/21 12:57:18;;;;;;;15.65;8.88;;;21.30;35.80;;;;;;5132377;27;20077;-69
2021/04/21 12:59:48;;;;;;;12.80;8.50;;;21.30;34.90;;;;;;5132018;27;20488;-68
2021/04/21 13:02:34;;;;;;;12.38;8.40;;;21.30;34.70;;;;;;5133665;27;20025;-69
2021/04/21 13:04:59;;;;;;;12.43;7.63;;;21.40;34.30;;;;;;5133848;27;20020;-69
2021/04/21 13:07:25;;;;;;;12.52;7.30;;;21.50;34.40;;;;;;5133633;27;20356;-69
2021/04/21 13:10:15;;;;;;;7.72;5.97;;;21.50;33.60;;;;;;5133600;27;20028;-68
2021/04/21 13:12:42;;;;;;;8.80;6.07;;;21.50;33.60;;;;;;5133538;27;20476;-69